sensor_id;sensor_type;location;lat;lon;timestamp;temperature;humidity
22456;DHT22;11395;53.204;6.502;2022-11-06T00:09:33;23.40;69.90
22456;DHT22;11395;53.204;6.502;2022-11-06T00:12:00;23.30;70.90
22456;DHT22;11395;53.204;6.502;2022-11-06T00:14:26;23.30;71.10
22456;DHT22;11395;53.204;6.502;2022-11-06T00:16:52;23.20;71.20
22456;DHT22;11395;53.204;6.502;2022-11-06T00:19:18;23.30;71.10
22456;DHT22;11395;53.204;6.502;2022-11-06T00:21:44;23.20;71.00
22456;DHT22;11395;53.204;6.502;2022-11-06T00:24:12;23.20;71.00
22456;DHT22;11395;53.204;6.502;2022-11-06T00:26:39;23.20;71.00
22456;DHT22;11395;53.204;6.502;2022-11-06T00:29:06;23.30;70.90
22456;DHT22;11395;53.204;6.502;2022-11-06T00:31:35;23.30;70.90
22456;DHT22;11395;53.204;6.502;2022-11-06T00:34:03;23.20;70.80
22456;DHT22;11395;53.204;6.502;2022-11-06T00:36:29;23.20;70.70
22456;DHT22;11395;53.204;6.502;2022-11-06T00:38:57;23.20;70.70
22456;DHT22;11395;53.204;6.502;2022-11-06T00:41:24;23.20;70.80
22456;DHT22;11395;53.204;6.502;2022-11-06T00:43:52;23.20;70.70
22456;DHT22;11395;53.204;6.502;2022-11-06T00:46:19;23.20;70.90
22456;DHT22;11395;53.204;6.502;2022-11-06T00:48:45;23.20;71.00
22456;DHT22;11395;53.204;6.502;2022-11-06T00:51:17;23.10;70.70
22456;DHT22;11395;53.204;6.502;2022-11-06T00:53:44;23.10;70.80
22456;DHT22;11395;53.204;6.502;2022-11-06T00:56:13;23.10;71.00
22456;DHT22;11395;53.204;6.502;2022-11-06T00:58:39;23.10;70.90
22456;DHT22;11395;53.204;6.502;2022-11-06T01:08:32;22.90;70.60
22456;DHT22;11395;53.204;6.502;2022-11-06T01:10:58;22.80;71.60
22456;DHT22;11395;53.204;6.502;2022-11-06T01:13:30;22.70;71.70
22456;DHT22;11395;53.204;6.502;2022-11-06T01:15:56;22.80;71.80
22456;DHT22;11395;53.204;6.502;2022-11-06T01:18:23;22.70;71.70
22456;DHT22;11395;53.204;6.502;2022-11-06T01:20:49;22.70;72.40
22456;DHT22;11395;53.204;6.502;2022-11-06T01:23:15;22.80;72.10
22456;DHT22;11395;53.204;6.502;2022-11-06T01:25:41;22.80;71.60
22456;DHT22;11395;53.204;6.502;2022-11-06T01:28:07;22.80;71.40
22456;DHT22;11395;53.204;6.502;2022-11-06T01:30:36;22.80;71.40
22456;DHT22;11395;53.204;6.502;2022-11-06T01:33:03;22.80;71.40
22456;DHT22;11395;53.204;6.502;2022-11-06T01:35:29;22.70;72.10
22456;DHT22;11395;53.204;6.502;2022-11-06T01:37:55;22.80;71.30
22456;DHT22;11395;53.204;6.502;2022-11-06T01:40:21;22.70;71.30
22456;DHT22;11395;53.204;6.502;2022-11-06T01:42:47;22.70;71.30
22456;DHT22;11395;53.204;6.502;2022-11-06T01:47:46;22.70;71.30
22456;DHT22;11395;53.204;6.502;2022-11-06T01:50:14;22.70;71.30
22456;DHT22;11395;53.204;6.502;2022-11-06T01:52:42;22.70;71.40
22456;DHT22;11395;53.204;6.502;2022-11-06T01:55:31;22.70;71.30
22456;DHT22;11395;53.204;6.502;2022-11-06T01:58:00;22.70;71.40
22456;DHT22;11395;53.204;6.502;2022-11-06T02:05:32;22.60;70.80
22456;DHT22;11395;53.204;6.502;2022-11-06T02:07:58;22.50;71.60
22456;DHT22;11395;53.204;6.502;2022-11-06T02:10:26;22.40;71.70
22456;DHT22;11395;53.204;6.502;2022-11-06T02:29:44;22.30;71.90
22456;DHT22;11395;53.204;6.502;2022-11-06T02:32:17;22.30;72.00
22456;DHT22;11395;53.204;6.502;2022-11-06T02:34:45;22.30;71.80
22456;DHT22;11395;53.204;6.502;2022-11-06T02:37:23;22.30;72.00
22456;DHT22;11395;53.204;6.502;2022-11-06T02:39:51;22.20;71.80
22456;DHT22;11395;53.204;6.502;2022-11-06T02:42:19;22.20;71.90
22456;DHT22;11395;53.204;6.502;2022-11-06T02:44:48;22.20;71.80
22456;DHT22;11395;53.204;6.502;2022-11-06T02:47:18;22.20;71.90
22456;DHT22;11395;53.204;6.502;2022-11-06T02:49:54;22.20;71.80
22456;DHT22;11395;53.204;6.502;2022-11-06T02:52:26;22.20;71.90
22456;DHT22;11395;53.204;6.502;2022-11-06T02:54:59;22.20;71.90
22456;DHT22;11395;53.204;6.502;2022-11-06T02:57:30;22.10;71.90
22456;DHT22;11395;53.204;6.502;2022-11-06T03:00:04;22.10;71.90
22456;DHT22;11395;53.204;6.502;2022-11-06T03:02:35;22.10;71.90
22456;DHT22;11395;53.204;6.502;2022-11-06T03:10:54;22.10;71.90
22456;DHT22;11395;53.204;6.502;2022-11-06T03:16:47;22.10;71.90
22456;DHT22;11395;53.204;6.502;2022-11-06T03:19:34;22.10;72.00
22456;DHT22;11395;53.204;6.502;2022-11-06T03:22:25;22.00;72.00
22456;DHT22;11395;53.204;6.502;2022-11-06T03:24:58;22.00;72.00
22456;DHT22;11395;53.204;6.502;2022-11-06T03:27:33;22.00;71.90
22456;DHT22;11395;53.204;6.502;2022-11-06T03:30:06;22.00;72.00
22456;DHT22;11395;53.204;6.502;2022-11-06T03:32:47;22.00;71.90
22456;DHT22;11395;53.204;6.502;2022-11-06T03:35:31;22.00;71.90
22456;DHT22;11395;53.204;6.502;2022-11-06T03:38:19;22.00;71.80
22456;DHT22;11395;53.204;6.502;2022-11-06T03:40:50;21.90;71.80
22456;DHT22;11395;53.204;6.502;2022-11-06T03:43:21;21.90;71.80
22456;DHT22;11395;53.204;6.502;2022-11-06T03:45:51;21.90;71.90
22456;DHT22;11395;53.204;6.502;2022-11-06T03:48:28;21.90;71.90
22456;DHT22;11395;53.204;6.502;2022-11-06T03:53:27;21.90;72.00
22456;DHT22;11395;53.204;6.502;2022-11-06T03:56:06;21.90;72.00
22456;DHT22;11395;53.204;6.502;2022-11-06T03:58:37;21.90;72.00
22456;DHT22;11395;53.204;6.502;2022-11-06T04:01:07;21.80;72.00
22456;DHT22;11395;53.204;6.502;2022-11-06T04:03:57;21.80;72.00
22456;DHT22;11395;53.204;6.502;2022-11-06T04:06:30;21.80;72.00
22456;DHT22;11395;53.204;6.502;2022-11-06T04:09:01;21.80;71.90
22456;DHT22;11395;53.204;6.502;2022-11-06T04:11:48;21.80;72.00
22456;DHT22;11395;53.204;6.502;2022-11-06T04:14:36;21.80;72.00
22456;DHT22;11395;53.204;6.502;2022-11-06T04:17:06;21.80;72.00
22456;DHT22;11395;53.204;6.502;2022-11-06T04:19:35;21.80;72.00
22456;DHT22;11395;53.204;6.502;2022-11-06T04:25:46;21.80;72.00
22456;DHT22;11395;53.204;6.502;2022-11-06T04:33:47;21.70;72.00
22456;DHT22;11395;53.204;6.502;2022-11-06T04:36:28;21.70;72.00
22456;DHT22;11395;53.204;6.502;2022-11-06T04:39:05;21.70;72.10
22456;DHT22;11395;53.204;6.502;2022-11-06T04:44:41;21.70;72.00
22456;DHT22;11395;53.204;6.502;2022-11-06T04:47:12;21.70;72.10
22456;DHT22;11395;53.204;6.502;2022-11-06T04:49:41;21.60;72.00
22456;DHT22;11395;53.204;6.502;2022-11-06T04:52:18;21.70;72.00
22456;DHT22;11395;53.204;6.502;2022-11-06T04:54:46;21.70;72.00
22456;DHT22;11395;53.204;6.502;2022-11-06T04:57:12;21.70;72.00
22456;DHT22;11395;53.204;6.502;2022-11-06T04:59:38;21.80;72.00
22456;DHT22;11395;53.204;6.502;2022-11-06T05:02:05;21.80;71.90
22456;DHT22;11395;53.204;6.502;2022-11-06T05:04:32;21.90;72.00
22456;DHT22;11395;53.204;6.502;2022-11-06T05:06:58;21.90;71.90
22456;DHT22;11395;53.204;6.502;2022-11-06T05:09:25;22.00;71.90
22456;DHT22;11395;53.204;6.502;2022-11-06T05:11:51;22.10;71.80
22456;DHT22;11395;53.204;6.502;2022-11-06T05:14:17;22.10;71.70
22456;DHT22;11395;53.204;6.502;2022-11-06T05:16:43;22.20;71.50
22456;DHT22;11395;53.204;6.502;2022-11-06T05:19:09;22.30;71.40
22456;DHT22;11395;53.204;6.502;2022-11-06T05:21:36;22.40;71.20
22456;DHT22;11395;53.204;6.502;2022-11-06T05:24:20;22.40;71.10
22456;DHT22;11395;53.204;6.502;2022-11-06T05:26:47;22.50;71.00
22456;DHT22;11395;53.204;6.502;2022-11-06T05:29:13;22.60;71.00
22456;DHT22;11395;53.204;6.502;2022-11-06T05:31:39;22.60;70.90
22456;DHT22;11395;53.204;6.502;2022-11-06T05:34:05;22.60;70.80
22456;DHT22;11395;53.204;6.502;2022-11-06T05:36:32;22.70;70.80
22456;DHT22;11395;53.204;6.502;2022-11-06T05:38:58;22.70;70.50
22456;DHT22;11395;53.204;6.502;2022-11-06T05:41:24;22.80;70.40
22456;DHT22;11395;53.204;6.502;2022-11-06T05:43:50;22.80;70.30
22456;DHT22;11395;53.204;6.502;2022-11-06T05:46:17;22.80;70.20
22456;DHT22;11395;53.204;6.502;2022-11-06T05:48:43;22.90;70.10
22456;DHT22;11395;53.204;6.502;2022-11-06T05:51:09;23.00;70.00
22456;DHT22;11395;53.204;6.502;2022-11-06T05:53:36;23.00;69.90
22456;DHT22;11395;53.204;6.502;2022-11-06T05:56:03;23.10;69.90
22456;DHT22;11395;53.204;6.502;2022-11-06T05:58:30;23.20;69.90
22456;DHT22;11395;53.204;6.502;2022-11-06T06:00:57;23.30;69.90
22456;DHT22;11395;53.204;6.502;2022-11-06T06:03:24;23.30;69.80
22456;DHT22;11395;53.204;6.502;2022-11-06T06:05:51;23.40;69.70
22456;DHT22;11395;53.204;6.502;2022-11-06T06:08:17;23.50;69.60
22456;DHT22;11395;53.204;6.502;2022-11-06T06:10:44;23.60;69.60
22456;DHT22;11395;53.204;6.502;2022-11-06T06:13:11;23.70;69.60
22456;DHT22;11395;53.204;6.502;2022-11-06T06:15:39;23.70;69.50
22456;DHT22;11395;53.204;6.502;2022-11-06T06:18:06;23.80;69.30
22456;DHT22;11395;53.204;6.502;2022-11-06T06:20:33;23.90;70.00
22456;DHT22;11395;53.204;6.502;2022-11-06T06:23:00;23.90;69.30
22456;DHT22;11395;53.204;6.502;2022-11-06T06:25:28;24.00;69.00
22456;DHT22;11395;53.204;6.502;2022-11-06T06:27:54;24.10;69.10
22456;DHT22;11395;53.204;6.502;2022-11-06T06:30:21;24.10;69.00
22456;DHT22;11395;53.204;6.502;2022-11-06T06:32:49;24.10;68.70
22456;DHT22;11395;53.204;6.502;2022-11-06T06:35:15;24.20;68.60
22456;DHT22;11395;53.204;6.502;2022-11-06T06:37:49;24.20;68.60
22456;DHT22;11395;53.204;6.502;2022-11-06T06:40:16;24.20;68.40
22456;DHT22;11395;53.204;6.502;2022-11-06T06:42:42;24.30;68.30
22456;DHT22;11395;53.204;6.502;2022-11-06T06:45:08;24.30;68.00
22456;DHT22;11395;53.204;6.502;2022-11-06T06:47:34;24.30;68.00
22456;DHT22;11395;53.204;6.502;2022-11-06T06:50:01;24.30;67.90
22456;DHT22;11395;53.204;6.502;2022-11-06T06:52:27;24.30;67.90
22456;DHT22;11395;53.204;6.502;2022-11-06T06:54:53;24.30;67.80
22456;DHT22;11395;53.204;6.502;2022-11-06T06:57:19;24.30;67.70
22456;DHT22;11395;53.204;6.502;2022-11-06T06:59:45;24.30;67.40
22456;DHT22;11395;53.204;6.502;2022-11-06T07:02:11;24.30;67.60
22456;DHT22;11395;53.204;6.502;2022-11-06T07:04:38;24.30;67.40
22456;DHT22;11395;53.204;6.502;2022-11-06T07:07:04;24.30;67.50
22456;DHT22;11395;53.204;6.502;2022-11-06T07:09:31;24.30;67.40
22456;DHT22;11395;53.204;6.502;2022-11-06T07:11:57;24.30;67.40
22456;DHT22;11395;53.204;6.502;2022-11-06T07:14:24;24.20;67.40
22456;DHT22;11395;53.204;6.502;2022-11-06T07:16:50;24.20;67.40
22456;DHT22;11395;53.204;6.502;2022-11-06T07:19:16;24.20;67.40
22456;DHT22;11395;53.204;6.502;2022-11-06T07:21:42;24.20;67.40
22456;DHT22;11395;53.204;6.502;2022-11-06T07:24:09;24.20;67.60
22456;DHT22;11395;53.204;6.502;2022-11-06T07:26:35;24.10;67.60
22456;DHT22;11395;53.204;6.502;2022-11-06T07:29:01;24.10;67.50
22456;DHT22;11395;53.204;6.502;2022-11-06T07:31:29;24.20;67.70
22456;DHT22;11395;53.204;6.502;2022-11-06T07:33:55;24.10;67.60
22456;DHT22;11395;53.204;6.502;2022-11-06T07:36:22;24.20;67.80
22456;DHT22;11395;53.204;6.502;2022-11-06T07:38:48;24.20;68.00
22456;DHT22;11395;53.204;6.502;2022-11-06T07:41:14;24.20;68.00
22456;DHT22;11395;53.204;6.502;2022-11-06T07:43:41;24.20;68.00
22456;DHT22;11395;53.204;6.502;2022-11-06T07:46:10;24.30;68.30
22456;DHT22;11395;53.204;6.502;2022-11-06T07:48:37;24.40;68.40
22456;DHT22;11395;53.204;6.502;2022-11-06T07:51:06;24.40;68.50
22456;DHT22;11395;53.204;6.502;2022-11-06T07:53:32;24.40;68.20
22456;DHT22;11395;53.204;6.502;2022-11-06T07:55:59;24.50;68.20
22456;DHT22;11395;53.204;6.502;2022-11-06T07:58:25;24.50;68.20
22456;DHT22;11395;53.204;6.502;2022-11-06T08:00:54;24.50;68.00
22456;DHT22;11395;53.204;6.502;2022-11-06T08:03:21;24.60;68.70
22456;DHT22;11395;53.204;6.502;2022-11-06T08:05:48;24.60;67.80
22456;DHT22;11395;53.204;6.502;2022-11-06T08:08:14;24.60;67.80
22456;DHT22;11395;53.204;6.502;2022-11-06T08:10:40;24.60;67.60
22456;DHT22;11395;53.204;6.502;2022-11-06T08:13:09;24.60;67.60
22456;DHT22;11395;53.204;6.502;2022-11-06T08:15:37;24.60;67.50
22456;DHT22;11395;53.204;6.502;2022-11-06T08:18:04;24.60;67.40
22456;DHT22;11395;53.204;6.502;2022-11-06T08:20:31;24.60;67.40
22456;DHT22;11395;53.204;6.502;2022-11-06T08:22:58;24.70;67.60
22456;DHT22;11395;53.204;6.502;2022-11-06T08:25:26;24.60;67.40
22456;DHT22;11395;53.204;6.502;2022-11-06T08:27:57;24.70;67.70
22456;DHT22;11395;53.204;6.502;2022-11-06T08:30:24;24.70;67.60
22456;DHT22;11395;53.204;6.502;2022-11-06T08:32:50;24.70;67.60
22456;DHT22;11395;53.204;6.502;2022-11-06T08:35:17;24.70;67.20
22456;DHT22;11395;53.204;6.502;2022-11-06T08:37:44;24.60;67.20
22456;DHT22;11395;53.204;6.502;2022-11-06T08:40:10;24.70;67.20
22456;DHT22;11395;53.204;6.502;2022-11-06T08:42:37;24.60;67.20
22456;DHT22;11395;53.204;6.502;2022-11-06T08:45:04;24.60;67.00
22456;DHT22;11395;53.204;6.502;2022-11-06T08:47:30;24.60;67.30
22456;DHT22;11395;53.204;6.502;2022-11-06T08:49:57;24.60;67.20
22456;DHT22;11395;53.204;6.502;2022-11-06T08:52:23;24.60;67.40
22456;DHT22;11395;53.204;6.502;2022-11-06T08:54:50;24.60;67.40
22456;DHT22;11395;53.204;6.502;2022-11-06T08:57:16;24.60;67.20
22456;DHT22;11395;53.204;6.502;2022-11-06T08:59:43;24.60;67.10
22456;DHT22;11395;53.204;6.502;2022-11-06T09:02:11;24.50;66.90
22456;DHT22;11395;53.204;6.502;2022-11-06T09:04:38;24.50;67.00
22456;DHT22;11395;53.204;6.502;2022-11-06T09:07:04;24.40;66.90
22456;DHT22;11395;53.204;6.502;2022-11-06T09:09:31;24.40;66.90
22456;DHT22;11395;53.204;6.502;2022-11-06T09:11:58;24.40;67.00
22456;DHT22;11395;53.204;6.502;2022-11-06T09:14:25;24.30;66.90
22456;DHT22;11395;53.204;6.502;2022-11-06T09:16:52;24.30;67.00
22456;DHT22;11395;53.204;6.502;2022-11-06T09:19:18;24.30;66.90
22456;DHT22;11395;53.204;6.502;2022-11-06T09:21:45;24.30;67.00
22456;DHT22;11395;53.204;6.502;2022-11-06T09:24:11;24.40;67.50
22456;DHT22;11395;53.204;6.502;2022-11-06T09:26:38;24.40;67.40
22456;DHT22;11395;53.204;6.502;2022-11-06T09:29:04;24.40;67.60
22456;DHT22;11395;53.204;6.502;2022-11-06T09:31:30;24.40;67.60
22456;DHT22;11395;53.204;6.502;2022-11-06T09:33:56;24.40;67.50
22456;DHT22;11395;53.204;6.502;2022-11-06T09:36:22;24.50;67.60
22456;DHT22;11395;53.204;6.502;2022-11-06T09:38:49;24.50;67.70
22456;DHT22;11395;53.204;6.502;2022-11-06T09:46:24;24.70;67.90
22456;DHT22;11395;53.204;6.502;2022-11-06T09:51:57;24.70;68.00
22456;DHT22;11395;53.204;6.502;2022-11-06T09:54:44;24.70;68.00
22456;DHT22;11395;53.204;6.502;2022-11-06T09:57:28;24.80;67.80
22456;DHT22;11395;53.204;6.502;2022-11-06T10:00:00;24.80;67.80
22456;DHT22;11395;53.204;6.502;2022-11-06T10:05:33;24.80;67.30
22456;DHT22;11395;53.204;6.502;2022-11-06T10:08:04;24.80;67.10
22456;DHT22;11395;53.204;6.502;2022-11-06T10:19:03;24.80;67.10
22456;DHT22;11395;53.204;6.502;2022-11-06T10:27:15;24.70;67.00
22456;DHT22;11395;53.204;6.502;2022-11-06T10:30:12;24.70;66.90
22456;DHT22;11395;53.204;6.502;2022-11-06T10:38:13;24.70;66.90
22456;DHT22;11395;53.204;6.502;2022-11-06T10:40:42;24.70;67.00
22456;DHT22;11395;53.204;6.502;2022-11-06T10:45:52;24.60;67.20
22456;DHT22;11395;53.204;6.502;2022-11-06T10:48:28;24.60;66.90
22456;DHT22;11395;53.204;6.502;2022-11-06T10:54:20;24.60;66.90
22456;DHT22;11395;53.204;6.502;2022-11-06T10:59:29;24.50;66.90
22456;DHT22;11395;53.204;6.502;2022-11-06T11:01:56;24.50;66.90
22456;DHT22;11395;53.204;6.502;2022-11-06T11:04:22;24.50;67.00
22456;DHT22;11395;53.204;6.502;2022-11-06T11:06:48;24.40;67.00
22456;DHT22;11395;53.204;6.502;2022-11-06T11:09:32;24.40;67.00
22456;DHT22;11395;53.204;6.502;2022-11-06T11:11:59;24.40;67.90
22456;DHT22;11395;53.204;6.502;2022-11-06T11:14:27;24.40;67.00
22456;DHT22;11395;53.204;6.502;2022-11-06T11:16:57;24.30;67.00
22456;DHT22;11395;53.204;6.502;2022-11-06T11:19:39;24.30;67.10
22456;DHT22;11395;53.204;6.502;2022-11-06T11:22:17;24.30;67.10
22456;DHT22;11395;53.204;6.502;2022-11-06T11:25:07;24.30;67.20
22456;DHT22;11395;53.204;6.502;2022-11-06T11:27:48;24.20;67.20
22456;DHT22;11395;53.204;6.502;2022-11-06T11:30:23;24.20;67.10
22456;DHT22;11395;53.204;6.502;2022-11-06T11:32:52;24.20;67.40
22456;DHT22;11395;53.204;6.502;2022-11-06T11:35:24;24.20;67.50
22456;DHT22;11395;53.204;6.502;2022-11-06T11:37:51;24.20;67.50
22456;DHT22;11395;53.204;6.502;2022-11-06T11:40:35;24.20;67.60
22456;DHT22;11395;53.204;6.502;2022-11-06T11:43:22;24.20;67.60
22456;DHT22;11395;53.204;6.502;2022-11-06T11:48:50;24.20;67.80
22456;DHT22;11395;53.204;6.502;2022-11-06T11:54:14;24.30;67.90
22456;DHT22;11395;53.204;6.502;2022-11-06T11:56:55;24.30;67.80
22456;DHT22;11395;53.204;6.502;2022-11-06T11:59:55;24.40;67.90
22456;DHT22;11395;53.204;6.502;2022-11-06T12:02:34;24.40;67.90
22456;DHT22;11395;53.204;6.502;2022-11-06T12:05:07;24.40;67.90
22456;DHT22;11395;53.204;6.502;2022-11-06T12:07:40;24.50;67.90
22456;DHT22;11395;53.204;6.502;2022-11-06T12:12:47;24.60;67.80
22456;DHT22;11395;53.204;6.502;2022-11-06T12:18:05;24.60;67.60
22456;DHT22;11395;53.204;6.502;2022-11-06T12:23:22;24.70;67.60
22456;DHT22;11395;53.204;6.502;2022-11-06T12:28:49;24.70;67.60
22456;DHT22;11395;53.204;6.502;2022-11-06T12:33:52;24.70;67.40
22456;DHT22;11395;53.204;6.502;2022-11-06T12:36:23;24.70;67.50
22456;DHT22;11395;53.204;6.502;2022-11-06T12:39:03;24.70;67.40
22456;DHT22;11395;53.204;6.502;2022-11-06T12:41:38;24.80;67.50
22456;DHT22;11395;53.204;6.502;2022-11-06T12:44:11;24.80;67.60
22456;DHT22;11395;53.204;6.502;2022-11-06T12:46:53;24.80;67.50
22456;DHT22;11395;53.204;6.502;2022-11-06T12:49:30;24.80;67.40
22456;DHT22;11395;53.204;6.502;2022-11-06T12:57:57;24.80;67.40
22456;DHT22;11395;53.204;6.502;2022-11-06T13:00:41;24.80;67.30
22456;DHT22;11395;53.204;6.502;2022-11-06T13:11:24;24.70;67.20
22456;DHT22;11395;53.204;6.502;2022-11-06T13:14:13;24.70;67.40
22456;DHT22;11395;53.204;6.502;2022-11-06T13:16:54;24.60;67.40
22456;DHT22;11395;53.204;6.502;2022-11-06T13:19:33;24.60;67.50
22456;DHT22;11395;53.204;6.502;2022-11-06T13:30:18;24.50;67.90
22456;DHT22;11395;53.204;6.502;2022-11-06T13:35:20;24.50;68.20
22456;DHT22;11395;53.204;6.502;2022-11-06T13:37:48;24.50;68.10
22456;DHT22;11395;53.204;6.502;2022-11-06T13:52:01;24.50;68.10
22456;DHT22;11395;53.204;6.502;2022-11-06T14:00:16;24.60;68.10
22456;DHT22;11395;53.204;6.502;2022-11-06T14:11:12;24.70;67.70
22456;DHT22;11395;53.204;6.502;2022-11-06T14:13:39;24.70;67.60
22456;DHT22;11395;53.204;6.502;2022-11-06T14:18:38;24.80;67.40
22456;DHT22;11395;53.204;6.502;2022-11-06T14:21:25;24.80;67.40
22456;DHT22;11395;53.204;6.502;2022-11-06T14:26:56;24.80;67.10
22456;DHT22;11395;53.204;6.502;2022-11-06T14:34:43;24.90;67.10
22456;DHT22;11395;53.204;6.502;2022-11-06T14:45:10;24.90;67.20
22456;DHT22;11395;53.204;6.502;2022-11-06T14:52:49;24.80;67.20
22456;DHT22;11395;53.204;6.502;2022-11-06T14:55:56;24.90;67.30
22456;DHT22;11395;53.204;6.502;2022-11-06T15:03:02;24.70;66.00
22456;DHT22;11395;53.204;6.502;2022-11-06T15:06:00;24.70;66.40
22456;DHT22;11395;53.204;6.502;2022-11-06T15:09:03;24.70;66.60
22456;DHT22;11395;53.204;6.502;2022-11-06T15:15:06;24.60;66.70
22456;DHT22;11395;53.204;6.502;2022-11-06T15:17:44;24.60;66.20
22456;DHT22;11395;53.204;6.502;2022-11-06T15:20:18;24.50;66.30
22456;DHT22;11395;53.204;6.502;2022-11-06T15:23:08;24.50;66.60
22456;DHT22;11395;53.204;6.502;2022-11-06T15:25:39;24.50;67.00
22456;DHT22;11395;53.204;6.502;2022-11-06T15:28:13;24.40;67.40
22456;DHT22;11395;53.204;6.502;2022-11-06T15:31:00;24.40;67.00
22456;DHT22;11395;53.204;6.502;2022-11-06T15:33:44;24.30;66.90
22456;DHT22;11395;53.204;6.502;2022-11-06T15:36:12;24.30;67.20
22456;DHT22;11395;53.204;6.502;2022-11-06T15:38:41;24.30;67.30
22456;DHT22;11395;53.204;6.502;2022-11-06T15:41:15;24.30;67.40
22456;DHT22;11395;53.204;6.502;2022-11-06T15:43:44;24.40;67.60
22456;DHT22;11395;53.204;6.502;2022-11-06T15:48:37;24.50;67.50
22456;DHT22;11395;53.204;6.502;2022-11-06T15:51:21;24.50;67.60
22456;DHT22;11395;53.204;6.502;2022-11-06T15:53:56;24.60;67.60
22456;DHT22;11395;53.204;6.502;2022-11-06T15:56:32;24.60;67.50
22456;DHT22;11395;53.204;6.502;2022-11-06T15:59:10;24.70;67.60
22456;DHT22;11395;53.204;6.502;2022-11-06T16:01:37;24.70;67.50
22456;DHT22;11395;53.204;6.502;2022-11-06T16:04:15;24.70;67.30
22456;DHT22;11395;53.204;6.502;2022-11-06T16:06:42;24.70;67.20
22456;DHT22;11395;53.204;6.502;2022-11-06T16:12:49;24.80;67.00
22456;DHT22;11395;53.204;6.502;2022-11-06T16:15:46;24.80;66.80
22456;DHT22;11395;53.204;6.502;2022-11-06T16:23:04;24.90;66.70
22456;DHT22;11395;53.204;6.502;2022-11-06T16:25:31;24.90;66.50
22456;DHT22;11395;53.204;6.502;2022-11-06T16:27:59;24.90;66.50
22456;DHT22;11395;53.204;6.502;2022-11-06T16:30:26;24.90;66.20
22456;DHT22;11395;53.204;6.502;2022-11-06T16:32:53;24.90;66.60
22456;DHT22;11395;53.204;6.502;2022-11-06T16:35:31;24.80;66.20
22456;DHT22;11395;53.204;6.502;2022-11-06T16:38:27;24.80;66.40
22456;DHT22;11395;53.204;6.502;2022-11-06T16:40:53;24.80;66.40
22456;DHT22;11395;53.204;6.502;2022-11-06T16:43:22;24.80;66.90
22456;DHT22;11395;53.204;6.502;2022-11-06T16:45:57;24.80;67.70
22456;DHT22;11395;53.204;6.502;2022-11-06T16:48:28;24.80;68.10
22456;DHT22;11395;53.204;6.502;2022-11-06T16:51:02;24.80;67.90
22456;DHT22;11395;53.204;6.502;2022-11-06T16:53:31;24.80;68.40
22456;DHT22;11395;53.204;6.502;2022-11-06T16:58:28;24.80;68.10
22456;DHT22;11395;53.204;6.502;2022-11-06T17:00:58;24.80;68.10
22456;DHT22;11395;53.204;6.502;2022-11-06T17:03:27;24.80;68.10
22456;DHT22;11395;53.204;6.502;2022-11-06T17:05:56;24.80;68.30
22456;DHT22;11395;53.204;6.502;2022-11-06T17:08:30;24.80;68.30
22456;DHT22;11395;53.204;6.502;2022-11-06T17:11:00;24.70;68.30
22456;DHT22;11395;53.204;6.502;2022-11-06T17:13:43;24.80;68.60
22456;DHT22;11395;53.204;6.502;2022-11-06T17:16:18;24.70;68.60
22456;DHT22;11395;53.204;6.502;2022-11-06T17:18:45;24.70;68.60
22456;DHT22;11395;53.204;6.502;2022-11-06T17:21:21;24.70;68.60
22456;DHT22;11395;53.204;6.502;2022-11-06T17:23:49;24.70;68.70
22456;DHT22;11395;53.204;6.502;2022-11-06T17:26:22;24.70;68.70
22456;DHT22;11395;53.204;6.502;2022-11-06T17:28:50;24.60;68.80
22456;DHT22;11395;53.204;6.502;2022-11-06T17:31:17;24.60;68.80
22456;DHT22;11395;53.204;6.502;2022-11-06T17:33:44;24.60;68.70
22456;DHT22;11395;53.204;6.502;2022-11-06T17:36:25;24.60;68.60
22456;DHT22;11395;53.204;6.502;2022-11-06T17:38:53;24.50;68.70
22456;DHT22;11395;53.204;6.502;2022-11-06T17:41:19;24.50;68.80
22456;DHT22;11395;53.204;6.502;2022-11-06T17:43:59;24.50;68.10
22456;DHT22;11395;53.204;6.502;2022-11-06T17:46:28;24.50;67.80
22456;DHT22;11395;53.204;6.502;2022-11-06T17:48:55;24.40;67.80
22456;DHT22;11395;53.204;6.502;2022-11-06T17:51:23;24.40;68.30
22456;DHT22;11395;53.204;6.502;2022-11-06T17:54:08;24.30;68.00
22456;DHT22;11395;53.204;6.502;2022-11-06T17:56:37;24.30;68.40
22456;DHT22;11395;53.204;6.502;2022-11-06T17:59:04;24.30;68.30
22456;DHT22;11395;53.204;6.502;2022-11-06T18:01:31;24.20;68.40
22456;DHT22;11395;53.204;6.502;2022-11-06T18:03:57;24.30;68.50
22456;DHT22;11395;53.204;6.502;2022-11-06T18:06:24;24.30;68.50
22456;DHT22;11395;53.204;6.502;2022-11-06T18:08:58;24.40;68.50
22456;DHT22;11395;53.204;6.502;2022-11-06T18:11:26;24.40;68.50
22456;DHT22;11395;53.204;6.502;2022-11-06T18:13:54;24.40;68.40
22456;DHT22;11395;53.204;6.502;2022-11-06T18:16:24;24.40;68.30
22456;DHT22;11395;53.204;6.502;2022-11-06T18:18:53;24.50;68.30
22456;DHT22;11395;53.204;6.502;2022-11-06T18:21:20;24.50;68.20
22456;DHT22;11395;53.204;6.502;2022-11-06T18:23:47;24.50;68.10
22456;DHT22;11395;53.204;6.502;2022-11-06T18:26:13;24.60;68.10
22456;DHT22;11395;53.204;6.502;2022-11-06T18:28:40;24.60;68.10
22456;DHT22;11395;53.204;6.502;2022-11-06T18:31:07;24.60;68.10
22456;DHT22;11395;53.204;6.502;2022-11-06T18:33:34;24.60;67.90
22456;DHT22;11395;53.204;6.502;2022-11-06T18:36:05;24.60;67.90
22456;DHT22;11395;53.204;6.502;2022-11-06T18:38:33;24.60;67.80
22456;DHT22;11395;53.204;6.502;2022-11-06T18:41:08;24.60;68.00
22456;DHT22;11395;53.204;6.502;2022-11-06T18:43:35;24.60;67.90
22456;DHT22;11395;53.204;6.502;2022-11-06T18:46:03;24.60;67.20
22456;DHT22;11395;53.204;6.502;2022-11-06T18:48:31;24.60;67.10
22456;DHT22;11395;53.204;6.502;2022-11-06T18:51:21;24.60;67.40
22456;DHT22;11395;53.204;6.502;2022-11-06T18:53:48;24.60;67.40
22456;DHT22;11395;53.204;6.502;2022-11-06T18:56:16;24.60;67.50
22456;DHT22;11395;53.204;6.502;2022-11-06T18:58:43;24.60;67.50
22456;DHT22;11395;53.204;6.502;2022-11-06T19:01:14;24.60;67.40
22456;DHT22;11395;53.204;6.502;2022-11-06T19:03:41;24.60;67.40
22456;DHT22;11395;53.204;6.502;2022-11-06T19:06:10;24.50;66.80
22456;DHT22;11395;53.204;6.502;2022-11-06T19:08:37;24.40;66.10
22456;DHT22;11395;53.204;6.502;2022-11-06T19:11:06;24.50;67.00
22456;DHT22;11395;53.204;6.502;2022-11-06T19:13:34;24.50;67.30
22456;DHT22;11395;53.204;6.502;2022-11-06T19:16:01;24.40;67.20
22456;DHT22;11395;53.204;6.502;2022-11-06T19:18:32;24.40;67.30
22456;DHT22;11395;53.204;6.502;2022-11-06T19:20:58;24.40;67.50
22456;DHT22;11395;53.204;6.502;2022-11-06T19:23:28;24.40;67.60
22456;DHT22;11395;53.204;6.502;2022-11-06T19:25:54;24.40;67.60
22456;DHT22;11395;53.204;6.502;2022-11-06T19:28:21;24.30;67.50
22456;DHT22;11395;53.204;6.502;2022-11-06T19:30:47;24.30;67.50